createdAt,value
2023-04-07T00:00:37.199Z,101570.84
2023-04-07T00:03:07.298Z,101576.25
2023-04-07T00:05:35.876Z,101572.41
2023-04-07T00:08:05.541Z,101573.22
2023-04-07T00:10:33.772Z,101578.75
2023-04-07T00:13:02.114Z,101569.13
2023-04-07T00:15:30.940Z,101582.00
2023-04-07T00:17:59.203Z,101575.81
2023-04-07T00:20:27.560Z,101582.78
2023-04-07T00:22:55.862Z,101585.72
2023-04-07T00:25:25.593Z,101592.22
2023-04-07T00:27:53.934Z,101592.38
2023-04-07T00:30:22.458Z,101591.91
2023-04-07T00:32:51.532Z,101584.03
2023-04-07T00:35:20.378Z,101585.94
2023-04-07T00:37:48.774Z,101591.91
2023-04-07T00:40:18.171Z,101577.75
2023-04-07T00:42:47.812Z,101578.81
2023-04-07T00:45:16.148Z,101574.91
2023-04-07T00:47:44.477Z,101578.97
2023-04-07T00:50:13.188Z,101595.16
2023-04-07T00:52:41.720Z,101590.59
2023-04-07T00:55:10.976Z,101608.22
2023-04-07T00:57:39.255Z,101596.41
2023-04-07T01:00:19.691Z,101599.03
2023-04-07T01:02:58.866Z,101595.44
2023-04-07T01:05:37.722Z,101592.00
2023-04-07T01:08:14.589Z,101592.38
2023-04-07T01:10:51.154Z,101586.50
2023-04-07T01:13:28.760Z,101591.28
2023-04-07T01:16:02.044Z,101597.34
2023-04-07T01:18:34.759Z,101601.78
2023-04-07T01:21:08.499Z,101591.34
2023-04-07T01:24:02.411Z,101596.88
2023-04-07T01:26:32.345Z,101590.41
2023-04-07T01:29:40.464Z,101590.19
2023-04-07T01:32:12.730Z,101595.03
2023-04-07T01:34:43.178Z,101592.13
2023-04-07T01:37:12.969Z,101591.28
2023-04-07T01:39:41.654Z,101582.00
2023-04-07T01:42:10.302Z,101589.25
2023-04-07T01:44:41.071Z,101592.84
2023-04-07T01:47:10.041Z,101595.91
2023-04-07T01:49:39.166Z,101585.16
2023-04-07T01:52:08.929Z,101585.16
2023-04-07T01:54:38.067Z,101593.28
2023-04-07T01:57:06.351Z,101595.66
2023-04-07T01:59:34.639Z,101597.13
2023-04-07T02:02:04.777Z,101591.47
2023-04-07T02:04:39.677Z,101591.56
2023-04-07T02:07:15.701Z,101586.66
2023-04-07T02:09:48.201Z,101593.00
2023-04-07T02:12:18.088Z,101586.97
2023-04-07T02:14:46.699Z,101596.78
2023-04-07T02:17:17.514Z,101594.34
2023-04-07T02:19:47.782Z,101594.75
2023-04-07T02:22:17.559Z,101590.78
2023-04-07T02:24:45.744Z,101593.44
2023-04-07T02:27:14.174Z,101595.44
2023-04-07T02:29:42.413Z,101594.06
2023-04-07T02:32:11.061Z,101599.31
2023-04-07T02:34:40.938Z,101592.56
2023-04-07T02:37:09.403Z,101602.00
2023-04-07T02:39:37.723Z,101588.97
2023-04-07T02:42:06.370Z,101586.56
2023-04-07T02:44:34.773Z,101593.38
2023-04-07T02:47:03.106Z,101587.19
2023-04-07T02:49:31.345Z,101590.19
2023-04-07T02:52:01.182Z,101599.41
2023-04-07T02:54:29.505Z,101594.97
2023-04-07T02:56:57.856Z,101599.34
2023-04-07T02:59:26.147Z,101601.28
2023-04-07T03:01:54.640Z,101600.47
2023-04-07T03:04:23.653Z,101604.75
2023-04-07T03:06:52.058Z,101598.34
2023-04-07T03:09:21.663Z,101599.47
2023-04-07T03:11:49.932Z,101599.13
2023-04-07T03:14:18.220Z,101594.38
2023-04-07T03:16:46.734Z,101589.06
2023-04-07T03:19:16.365Z,101591.13
2023-04-07T03:21:44.724Z,101603.44
2023-04-07T03:24:13.004Z,101597.91
2023-04-07T03:26:42.801Z,101601.63
2023-04-07T03:29:11.058Z,101597.94
2023-04-07T03:31:39.414Z,101600.50
2023-04-07T03:34:07.769Z,101602.06
2023-04-07T03:36:36.005Z,101609.19
2023-04-07T03:39:04.409Z,101603.94
2023-04-07T03:41:32.754Z,101607.81
2023-04-07T03:44:02.351Z,101617.72
2023-04-07T03:46:30.774Z,101602.50
2023-04-07T03:48:58.990Z,101603.75
2023-04-07T03:51:27.867Z,101606.16
2023-04-07T03:53:56.371Z,101608.34
2023-04-07T03:56:25.226Z,101605.53
2023-04-07T03:58:54.280Z,101611.75
2023-04-07T04:01:29.640Z,101609.66
2023-04-07T04:03:58.313Z,101601.06
2023-04-07T04:06:27.299Z,101613.97
2023-04-07T04:08:55.864Z,101608.75
2023-04-07T04:11:24.572Z,101609.94
2023-04-07T04:13:53.095Z,101615.50
2023-04-07T04:16:23.232Z,101616.31
2023-04-07T04:18:51.762Z,101620.19
2023-04-07T04:21:20.243Z,101623.16
2023-04-07T04:23:49.523Z,101613.03
2023-04-07T04:26:17.855Z,101619.91
2023-04-07T04:28:47.439Z,101620.38
2023-04-07T04:31:16.078Z,101629.28
2023-04-07T04:33:45.987Z,101636.41
2023-04-07T04:36:14.503Z,101637.91
2023-04-07T04:38:42.817Z,101637.91
2023-04-07T04:41:11.407Z,101647.34
2023-04-07T04:43:39.973Z,101646.13
2023-04-07T04:46:08.412Z,101646.47
2023-04-07T04:48:36.920Z,101649.66
2023-04-07T04:51:07.135Z,101654.31
2023-04-07T04:53:37.088Z,101650.81
2023-04-07T04:56:06.298Z,101654.38
2023-04-07T04:58:34.674Z,101655.19
2023-04-07T05:01:03.225Z,101650.44
2023-04-07T05:03:31.665Z,101653.88
2023-04-07T05:06:00.063Z,101639.53
2023-04-07T05:08:30.102Z,101654.97
2023-04-07T05:10:59.051Z,101649.88
2023-04-07T05:13:27.638Z,101657.63
2023-04-07T05:15:56.155Z,101651.53
2023-04-07T05:18:25.027Z,101648.00
2023-04-07T05:20:56.477Z,101662.53
2023-04-07T05:23:24.990Z,101661.53
2023-04-07T05:25:54.902Z,101657.16
2023-04-07T05:28:24.709Z,101669.56
2023-04-07T05:30:53.054Z,101662.56
2023-04-07T05:33:22.570Z,101670.34
2023-04-07T05:35:53.216Z,101673.66
2023-04-07T05:38:21.844Z,101668.88
2023-04-07T05:40:51.507Z,101670.91
2023-04-07T05:43:21.635Z,101682.59
2023-04-07T05:45:50.130Z,101679.53
2023-04-07T05:48:18.629Z,101675.69
2023-04-07T05:50:47.031Z,101678.59
2023-04-07T05:53:16.262Z,101670.84
2023-04-07T05:55:45.215Z,101682.88
2023-04-07T05:58:13.759Z,101692.00
2023-04-07T06:00:43.736Z,101695.03
2023-04-07T06:03:12.277Z,101690.28
2023-04-07T06:05:43.617Z,101700.31
2023-04-07T06:08:12.252Z,101701.03
2023-04-07T06:10:41.591Z,101692.41
2023-04-07T06:13:10.193Z,101695.16
2023-04-07T06:15:38.819Z,101710.00
2023-04-07T06:18:08.952Z,101705.47
2023-04-07T06:20:37.953Z,101710.50
2023-04-07T06:23:06.739Z,101705.78
2023-04-07T06:25:35.327Z,101707.47
2023-04-07T06:28:04.011Z,101712.22
2023-04-07T06:30:33.298Z,101722.84
2023-04-07T06:33:02.227Z,101721.56
2023-04-07T06:35:32.122Z,101711.75
2023-04-07T06:38:00.452Z,101722.72
2023-04-07T06:40:28.806Z,101709.31
2023-04-07T06:42:57.755Z,101717.91
2023-04-07T06:45:26.539Z,101720.81
2023-04-07T06:47:55.004Z,101731.47
2023-04-07T06:50:23.710Z,101722.41
2023-04-07T06:52:53.820Z,101734.53
2023-04-07T06:55:22.046Z,101735.22
2023-04-07T06:57:52.554Z,101728.91
2023-04-07T07:00:23.055Z,101744.47
2023-04-07T07:05:44.636Z,101753.19
2023-04-07T07:08:14.433Z,101749.16
2023-04-07T07:10:44.065Z,101749.88
2023-04-07T07:13:12.333Z,101737.53
2023-04-07T07:15:40.825Z,101749.31
2023-04-07T07:18:09.164Z,101747.84
2023-04-07T07:20:37.791Z,101752.91
2023-04-07T07:23:06.349Z,101754.53
2023-04-07T07:25:42.383Z,101762.28
2023-04-07T07:28:11.329Z,101762.72
2023-04-07T07:30:42.259Z,101763.31
2023-04-07T07:33:10.893Z,101763.28
2023-04-07T07:35:40.532Z,101770.47
2023-04-07T07:38:09.169Z,101762.19
2023-04-07T07:40:39.359Z,101777.97
2023-04-07T07:43:07.891Z,101758.28
2023-04-07T07:45:36.578Z,101781.19
2023-04-07T07:48:05.199Z,101778.03
2023-04-07T07:50:33.872Z,101778.00
2023-04-07T07:53:02.778Z,101783.25
2023-04-07T07:55:31.184Z,101779.97
2023-04-07T07:58:00.952Z,101774.78
2023-04-07T08:00:29.905Z,101780.28
2023-04-07T08:02:58.536Z,101782.50
2023-04-07T08:05:27.314Z,101788.78
2023-04-07T08:07:55.926Z,101782.66
2023-04-07T08:10:25.359Z,101796.13
2023-04-07T08:12:53.721Z,101809.28
2023-04-07T08:15:23.910Z,101807.13
2023-04-07T08:17:54.614Z,101798.78
2023-04-07T08:20:24.078Z,101813.63
2023-04-07T08:22:52.755Z,101809.50
2023-04-07T08:25:21.427Z,101793.97
2023-04-07T08:27:50.037Z,101799.44
2023-04-07T08:30:18.599Z,101802.28
2023-04-07T08:32:49.005Z,101792.31
2023-04-07T08:35:17.416Z,101804.28
2023-04-07T08:37:46.223Z,101801.16
2023-04-07T08:40:14.760Z,101810.72
2023-04-07T08:42:47.675Z,101821.84
2023-04-07T08:45:19.446Z,101816.84
2023-04-07T08:47:54.258Z,101819.88
2023-04-07T08:50:23.774Z,101819.66
2023-04-07T08:52:57.235Z,101821.47
2023-04-07T08:55:26.264Z,101814.06
2023-04-07T08:57:55.683Z,101824.78
2023-04-07T09:00:24.463Z,101823.75
2023-04-07T09:02:54.735Z,101835.41
2023-04-07T09:05:25.191Z,101828.00
2023-04-07T09:07:53.443Z,101833.47
2023-04-07T09:10:22.343Z,101829.25
2023-04-07T09:12:51.028Z,101834.47
2023-04-07T09:15:19.969Z,101839.38
2023-04-07T09:17:49.092Z,101832.84
2023-04-07T09:20:19.988Z,101840.03
2023-04-07T09:22:50.484Z,101845.03
2023-04-07T09:25:22.794Z,101853.25
2023-04-07T09:28:02.434Z,101848.47
2023-04-07T09:30:32.544Z,101847.63
2023-04-07T09:33:02.485Z,101847.00
2023-04-07T09:35:35.429Z,101848.56
2023-04-07T09:38:05.809Z,101851.09
2023-04-07T09:40:34.944Z,101850.34
2023-04-07T09:43:05.294Z,101847.47
2023-04-07T09:45:36.546Z,101847.19
2023-04-07T09:48:09.716Z,101843.22
2023-04-07T09:50:42.167Z,101846.19
2023-04-07T09:53:10.657Z,101845.81
2023-04-07T09:55:40.933Z,101846.09
2023-04-07T09:58:13.195Z,101846.13
2023-04-07T10:00:42.464Z,101849.63
2023-04-07T10:03:11.147Z,101854.28
2023-04-07T10:05:41.589Z,101850.53
2023-04-07T10:08:12.414Z,101845.38
2023-04-07T10:10:44.738Z,101857.88
2023-04-07T10:13:14.356Z,101855.22
2023-04-07T10:15:42.985Z,101857.09
2023-04-07T10:18:11.568Z,101857.59
2023-04-07T10:20:43.314Z,101862.84
2023-04-07T10:23:20.504Z,101865.47
2023-04-07T10:25:52.769Z,101865.97
2023-04-07T10:28:24.917Z,101874.22
2023-04-07T10:30:54.252Z,101871.13
2023-04-07T10:33:48.604Z,101878.22
2023-04-07T10:36:20.632Z,101874.22
2023-04-07T10:39:24.208Z,101882.41
2023-04-07T10:41:53.356Z,101877.75
2023-04-07T10:44:51.498Z,101888.56
2023-04-07T10:47:19.808Z,101881.13
2023-04-07T10:50:18.843Z,101893.03
2023-04-07T10:52:50.462Z,101885.34
2023-04-07T10:55:46.339Z,101888.25
2023-04-07T10:58:18.181Z,101895.88
2023-04-07T11:01:22.930Z,101884.25
2023-04-07T11:04:02.523Z,101882.59
2023-04-07T11:06:31.688Z,101882.19
2023-04-07T11:09:01.685Z,101892.66
2023-04-07T11:11:43.338Z,101882.53
2023-04-07T11:14:15.729Z,101899.72
2023-04-07T11:16:45.929Z,101896.56
2023-04-07T11:19:14.373Z,101901.44
2023-04-07T11:21:45.356Z,101894.38
2023-04-07T11:24:33.946Z,101894.66
2023-04-07T11:27:03.680Z,101894.78
2023-04-07T11:29:33.130Z,101892.84
2023-04-07T11:32:03.591Z,101893.84
2023-04-07T11:34:33.364Z,101900.59
2023-04-07T11:37:21.361Z,101901.84
2023-04-07T11:39:54.957Z,101906.03
2023-04-07T11:42:34.599Z,101905.69
2023-04-07T11:45:10.809Z,101919.00
2023-04-07T11:47:41.192Z,101913.66
2023-04-07T11:50:12.175Z,101910.84
2023-04-07T11:52:43.832Z,101917.03
2023-04-07T11:55:22.474Z,101912.13
2023-04-07T11:57:52.467Z,101927.31
2023-04-07T12:00:22.375Z,101921.44
2023-04-07T12:02:51.551Z,101933.72
2023-04-07T12:05:20.217Z,101923.25
2023-04-07T12:07:55.698Z,101931.97
2023-04-07T12:10:27.174Z,101925.00
2023-04-07T12:12:56.968Z,101933.00
2023-04-07T12:15:27.475Z,101926.31
2023-04-07T12:17:55.887Z,101936.19
2023-04-07T12:20:24.571Z,101939.50
2023-04-07T12:22:56.530Z,101941.41
2023-04-07T12:25:27.588Z,101942.34
2023-04-07T12:27:56.357Z,101938.25
2023-04-07T12:30:24.832Z,101946.22
2023-04-07T12:32:53.625Z,101957.72
2023-04-07T12:35:23.029Z,101948.72
2023-04-07T12:37:52.058Z,101961.97
2023-04-07T12:40:21.340Z,101962.13
2023-04-07T12:42:51.938Z,101969.16
2023-04-07T12:45:24.131Z,101975.81
2023-04-07T12:47:53.866Z,101972.59
2023-04-07T12:50:22.245Z,101969.13
2023-04-07T12:52:51.373Z,101976.59
2023-04-07T12:55:19.923Z,101966.34
2023-04-07T12:57:48.431Z,101972.72
2023-04-07T13:00:21.407Z,101971.63
2023-04-07T13:02:50.092Z,101970.00
2023-04-07T13:05:19.719Z,101977.47
2023-04-07T13:07:49.705Z,101985.03
2023-04-07T13:10:19.269Z,101979.78
2023-04-07T13:12:47.740Z,101978.84
2023-04-07T13:15:17.637Z,101987.22
2023-04-07T13:17:46.703Z,101990.91
2023-04-07T13:20:19.799Z,101993.84
2023-04-07T13:23:02.775Z,101979.44
2023-04-07T13:25:34.224Z,101981.16
2023-04-07T13:28:02.937Z,101989.09
2023-04-07T13:30:33.227Z,101986.97
2023-04-07T13:33:02.184Z,102001.56
2023-04-07T13:35:33.830Z,101992.59
2023-04-07T13:38:02.674Z,101988.53
2023-04-07T13:40:33.032Z,101995.19
2023-04-07T13:43:01.738Z,101992.28
2023-04-07T13:45:30.084Z,101998.47
2023-04-07T13:48:00.360Z,101992.81
2023-04-07T13:50:29.287Z,101995.22
2023-04-07T13:52:58.079Z,101999.13
2023-04-07T13:55:26.552Z,101993.25
2023-04-07T13:57:55.481Z,102000.44
2023-04-07T14:00:24.235Z,101996.00
2023-04-07T14:02:53.013Z,101992.97
2023-04-07T14:05:23.067Z,102001.44
2023-04-07T14:07:52.082Z,102006.25
2023-04-07T14:10:20.715Z,102005.00
2023-04-07T14:12:49.260Z,102006.56
2023-04-07T14:15:18.456Z,102000.06
2023-04-07T14:17:47.048Z,102007.44
2023-04-07T14:20:15.886Z,101996.88
2023-04-07T14:22:45.658Z,102005.25
2023-04-07T14:25:14.074Z,102005.69
2023-04-07T14:27:42.484Z,102002.78
2023-04-07T14:30:12.911Z,102013.69
2023-04-07T14:32:41.640Z,102025.31
2023-04-07T14:35:11.230Z,102020.84
2023-04-07T14:37:40.008Z,102018.16
2023-04-07T14:40:12.108Z,102024.13
2023-04-07T14:42:43.629Z,102024.06
2023-04-07T14:45:13.552Z,102024.94
2023-04-07T14:47:41.813Z,102024.63
2023-04-07T14:50:14.142Z,102026.88
2023-04-07T14:52:43.561Z,102025.63
2023-04-07T14:55:13.976Z,102021.72
2023-04-07T14:57:42.443Z,102021.16
2023-04-07T15:00:12.282Z,102027.16
2023-04-07T15:02:41.080Z,102034.16
2023-04-07T15:05:10.659Z,102033.84
2023-04-07T15:07:39.095Z,102026.53
2023-04-07T15:10:08.576Z,102037.88
2023-04-07T15:12:38.594Z,102044.47
2023-04-07T15:15:10.161Z,102052.34
2023-04-07T15:17:44.264Z,102042.97
2023-04-07T15:20:14.045Z,102041.63
2023-04-07T15:22:42.598Z,102042.34
2023-04-07T15:25:11.553Z,102049.94
2023-04-07T15:27:41.392Z,102053.72
2023-04-07T15:30:21.810Z,102045.91
2023-04-07T15:33:01.915Z,102053.97
2023-04-07T15:35:31.945Z,102051.88
2023-04-07T15:38:01.602Z,102051.19
2023-04-07T15:40:36.926Z,102052.84
2023-04-07T15:43:10.725Z,102054.28
2023-04-07T15:45:43.705Z,102051.38
2023-04-07T15:48:15.411Z,102061.97
2023-04-07T15:50:44.092Z,102057.19
2023-04-07T15:53:12.943Z,102063.47
2023-04-07T15:55:42.107Z,102066.16
2023-04-07T15:58:12.393Z,102078.63
2023-04-07T16:00:41.320Z,102079.53
2023-04-07T16:03:10.005Z,102070.47
2023-04-07T16:05:39.778Z,102075.22
2023-04-07T16:08:08.969Z,102070.53
2023-04-07T16:10:37.473Z,102070.63
2023-04-07T16:13:05.975Z,102063.53
2023-04-07T16:15:40.496Z,102073.38
2023-04-07T16:18:12.723Z,102071.47
2023-04-07T16:20:41.919Z,102073.97
2023-04-07T16:23:11.112Z,102066.00
2023-04-07T16:25:40.007Z,102073.53
2023-04-07T16:28:08.790Z,102074.16
2023-04-07T16:30:39.143Z,102077.56
2023-04-07T16:33:07.649Z,102080.97
2023-04-07T16:35:36.076Z,102081.47
2023-04-07T16:38:06.437Z,102085.44
2023-04-07T16:40:35.408Z,102081.38
2023-04-07T16:43:04.058Z,102098.59
2023-04-07T16:45:32.724Z,102091.75
2023-04-07T16:48:03.873Z,102099.41
2023-04-07T16:50:32.445Z,102105.72
2023-04-07T16:53:00.888Z,102117.19
2023-04-07T16:55:29.144Z,102114.63
2023-04-07T16:57:57.395Z,102109.00
2023-04-07T17:00:27.454Z,102118.00
2023-04-07T17:02:56.128Z,102105.50
2023-04-07T17:05:26.578Z,102113.03
2023-04-07T17:07:56.151Z,102106.84
2023-04-07T17:10:25.515Z,102123.81
2023-04-07T17:12:56.205Z,102123.47
2023-04-07T17:15:24.839Z,102127.94
2023-04-07T17:17:54.064Z,102126.53
2023-04-07T17:20:23.548Z,102119.41
2023-04-07T17:22:57.844Z,102130.41
2023-04-07T17:25:26.570Z,102134.25
2023-04-07T17:27:55.489Z,102131.44
2023-04-07T17:30:23.840Z,102145.06
2023-04-07T17:32:53.566Z,102147.56
2023-04-07T17:35:22.760Z,102147.16
2023-04-07T17:37:53.538Z,102158.81
2023-04-07T17:40:22.400Z,102149.97
2023-04-07T17:42:50.899Z,102169.28
2023-04-07T17:45:19.192Z,102168.59
2023-04-07T17:47:48.693Z,102166.28
2023-04-07T17:50:17.578Z,102174.13
2023-04-07T17:52:48.210Z,102172.47
2023-04-07T17:55:22.635Z,102182.19
2023-04-07T17:57:53.593Z,102174.13
2023-04-07T18:00:23.815Z,102179.00
2023-04-07T18:02:53.794Z,102176.22
2023-04-07T18:05:23.558Z,102179.84
2023-04-07T18:07:55.198Z,102181.47
2023-04-07T18:10:26.074Z,102173.63
2023-04-07T18:12:55.267Z,102183.22
2023-04-07T18:15:27.935Z,102187.44
2023-04-07T18:17:57.127Z,102190.78
2023-04-07T18:20:26.018Z,102189.25
2023-04-07T18:22:55.771Z,102192.97
2023-04-07T18:25:27.956Z,102194.03
2023-04-07T18:27:58.947Z,102196.44
2023-04-07T18:30:27.323Z,102197.25
2023-04-07T18:32:56.309Z,102188.31
2023-04-07T18:35:25.822Z,102202.19
2023-04-07T18:37:55.088Z,102201.69
2023-04-07T18:40:28.978Z,102185.50
2023-04-07T18:42:58.295Z,102203.25
2023-04-07T18:45:27.350Z,102210.44
2023-04-07T18:47:55.840Z,102212.31
2023-04-07T18:50:24.652Z,102214.53
2023-04-07T18:52:55.830Z,102216.09
2023-04-07T18:55:26.170Z,102212.94
2023-04-07T18:58:04.710Z,102219.16
2023-04-07T19:00:33.537Z,102234.59
2023-04-07T19:03:02.519Z,102229.97
2023-04-07T19:05:31.787Z,102246.44
2023-04-07T19:08:01.154Z,102246.59
2023-04-07T19:10:31.349Z,102255.38
2023-04-07T19:13:00.772Z,102244.22
2023-04-07T19:15:30.351Z,102258.66
2023-04-07T19:17:59.208Z,102260.47
2023-04-07T19:20:28.153Z,102253.03
2023-04-07T19:22:57.572Z,102254.72
2023-04-07T19:25:27.453Z,102263.78
2023-04-07T19:28:00.468Z,102260.97
2023-04-07T19:30:30.567Z,102263.78
2023-04-07T19:32:58.992Z,102271.16
2023-04-07T19:35:27.572Z,102273.69
2023-04-07T19:38:01.003Z,102271.97
2023-04-07T19:40:31.521Z,102279.22
2023-04-07T19:43:01.640Z,102277.44
2023-04-07T19:45:30.145Z,102279.72
2023-04-07T19:47:59.246Z,102280.53
2023-04-07T19:50:28.532Z,102281.28
2023-04-07T19:52:57.053Z,102285.47
2023-04-07T19:55:26.034Z,102289.41
2023-04-07T19:57:57.638Z,102286.91
2023-04-07T20:00:30.654Z,102287.84
2023-04-07T20:03:01.762Z,102283.50
2023-04-07T20:05:30.813Z,102285.41
2023-04-07T20:07:59.501Z,102289.09
2023-04-07T20:10:28.243Z,102295.81
2023-04-07T20:12:57.210Z,102297.03
2023-04-07T20:15:28.859Z,102286.28
2023-04-07T20:17:57.629Z,102293.41
2023-04-07T20:20:26.359Z,102291.66
2023-04-07T20:22:54.840Z,102304.09
2023-04-07T20:25:23.970Z,102303.22
2023-04-07T20:27:52.555Z,102307.91
2023-04-07T20:30:21.399Z,102311.63
2023-04-07T20:33:00.242Z,102315.28
2023-04-07T20:35:28.866Z,102309.06
2023-04-07T20:37:59.827Z,102317.19
2023-04-07T20:40:28.537Z,102311.03
2023-04-07T20:42:56.955Z,102311.19
2023-04-07T20:45:26.830Z,102321.13
2023-04-07T20:47:57.186Z,102317.78
2023-04-07T20:50:25.841Z,102319.03
2023-04-07T20:52:54.481Z,102321.06
2023-04-07T20:55:22.867Z,102327.41
2023-04-07T20:57:53.673Z,102327.50
2023-04-07T21:00:22.960Z,102327.50
2023-04-07T21:02:51.681Z,102324.22
2023-04-07T21:05:21.670Z,102318.06
2023-04-07T21:07:50.217Z,102325.44
2023-04-07T21:10:18.715Z,102319.41
2023-04-07T21:12:48.183Z,102331.25
2023-04-07T21:15:16.779Z,102324.47
2023-04-07T21:17:46.065Z,102328.19
2023-04-07T21:20:14.945Z,102334.47
2023-04-07T21:22:44.605Z,102332.16
2023-04-07T21:25:12.914Z,102346.69
2023-04-07T21:27:41.627Z,102344.22
2023-04-07T21:30:13.924Z,102341.88
2023-04-07T21:32:42.394Z,102347.88
2023-04-07T21:35:11.252Z,102345.38
2023-04-07T21:37:39.699Z,102345.88
2023-04-07T21:40:11.192Z,102345.06
2023-04-07T21:42:39.695Z,102342.25
2023-04-07T21:45:10.666Z,102346.66
2023-04-07T21:47:39.299Z,102351.13
2023-04-07T21:50:09.363Z,102353.78
2023-04-07T21:52:38.464Z,102340.56
2023-04-07T21:55:11.435Z,102341.69
2023-04-07T21:57:39.898Z,102348.78
2023-04-07T22:00:10.703Z,102351.66
2023-04-07T22:02:39.363Z,102351.81
2023-04-07T22:05:08.359Z,102359.91
2023-04-07T22:07:37.461Z,102364.50
2023-04-07T22:10:06.858Z,102361.97
2023-04-07T22:12:36.786Z,102365.59
2023-04-07T22:15:06.619Z,102366.63
2023-04-07T22:17:35.730Z,102363.16
2023-04-07T22:20:05.150Z,102372.91
2023-04-07T22:22:33.513Z,102370.28
2023-04-07T22:25:01.809Z,102369.47
2023-04-07T22:27:30.108Z,102375.75
2023-04-07T22:29:59.759Z,102370.50
2023-04-07T22:32:28.146Z,102368.03
2023-04-07T22:34:56.665Z,102371.63
2023-04-07T22:37:25.110Z,102369.06
2023-04-07T22:39:53.357Z,102380.69
2023-04-07T22:42:21.720Z,102380.75
2023-04-07T22:44:50.015Z,102380.72
2023-04-07T22:47:19.847Z,102389.53
2023-04-07T22:49:48.212Z,102389.59
2023-04-07T22:52:16.581Z,102397.88
2023-04-07T22:54:44.945Z,102396.06
2023-04-07T22:57:13.401Z,102395.81
2023-04-07T22:59:41.813Z,102402.16
2023-04-07T23:02:10.857Z,102400.19
2023-04-07T23:04:41.152Z,102409.84
2023-04-07T23:07:09.660Z,102409.63
2023-04-07T23:09:38.460Z,102398.84
2023-04-07T23:12:06.928Z,102388.16
2023-04-07T23:14:35.378Z,102402.22
2023-04-07T23:17:03.728Z,102404.09
2023-04-07T23:19:32.224Z,102404.44
2023-04-07T23:22:03.661Z,102412.69
2023-04-07T23:24:32.009Z,102411.75
2023-04-07T23:27:00.836Z,102413.84
2023-04-07T23:29:29.567Z,102414.13
2023-04-07T23:31:57.997Z,102407.63
2023-04-07T23:34:26.576Z,102416.31
2023-04-07T23:36:54.980Z,102414.91
2023-04-07T23:39:25.494Z,102415.16
2023-04-07T23:41:53.654Z,102421.16
2023-04-07T23:44:22.100Z,102417.66
2023-04-07T23:46:50.453Z,102422.16
2023-04-07T23:49:19.238Z,102428.38
2023-04-07T23:51:47.826Z,102422.50
2023-04-07T23:54:16.393Z,102422.47
2023-04-07T23:56:46.715Z,102421.34
2023-04-07T23:59:15.080Z,102413.16
